sensor_id;sensor_type;location;lat;lon;timestamp;temperature;humidity
67358;HTU21D;54240;51.096;5.878;2023-08-17T00:00:25;21.58;-6.00
67358;HTU21D;54240;51.096;5.878;2023-08-17T00:02:51;21.57;-6.00
67358;HTU21D;54240;51.096;5.878;2023-08-17T00:05:17;21.60;-6.00
67358;HTU21D;54240;51.096;5.878;2023-08-17T00:07:43;21.43;-6.00
67358;HTU21D;54240;51.096;5.878;2023-08-17T00:10:09;21.50;-6.00
67358;HTU21D;54240;51.096;5.878;2023-08-17T00:12:35;21.36;-6.00
67358;HTU21D;54240;51.096;5.878;2023-08-17T00:15:01;21.33;-6.00
67358;HTU21D;54240;51.096;5.878;2023-08-17T00:17:27;21.14;-6.00
67358;HTU21D;54240;51.096;5.878;2023-08-17T00:19:53;21.30;-6.00
67358;HTU21D;54240;51.096;5.878;2023-08-17T00:22:18;21.32;-6.00
67358;HTU21D;54240;51.096;5.878;2023-08-17T00:24:44;21.39;-6.00
67358;HTU21D;54240;51.096;5.878;2023-08-17T00:27:11;21.15;-6.00
67358;HTU21D;54240;51.096;5.878;2023-08-17T00:29:37;21.34;-6.00
67358;HTU21D;54240;51.096;5.878;2023-08-17T00:32:03;21.16;-6.00
67358;HTU21D;54240;51.096;5.878;2023-08-17T00:34:29;21.18;-6.00
67358;HTU21D;54240;51.096;5.878;2023-08-17T00:36:55;21.22;-6.00
67358;HTU21D;54240;51.096;5.878;2023-08-17T00:39:21;21.14;-6.00
67358;HTU21D;54240;51.096;5.878;2023-08-17T00:41:47;21.17;-6.00
67358;HTU21D;54240;51.096;5.878;2023-08-17T00:44:12;21.17;-6.00
67358;HTU21D;54240;51.096;5.878;2023-08-17T00:46:39;21.13;-6.00
67358;HTU21D;54240;51.096;5.878;2023-08-17T00:49:06;21.14;-6.00
67358;HTU21D;54240;51.096;5.878;2023-08-17T00:51:33;21.08;-6.00
67358;HTU21D;54240;51.096;5.878;2023-08-17T00:54:01;21.08;-6.00
67358;HTU21D;54240;51.096;5.878;2023-08-17T00:56:28;21.01;-6.00
67358;HTU21D;54240;51.096;5.878;2023-08-17T00:58:55;20.92;-6.00
67358;HTU21D;54240;51.096;5.878;2023-08-17T01:01:22;20.93;-6.00
67358;HTU21D;54240;51.096;5.878;2023-08-17T01:03:48;20.96;-6.00
67358;HTU21D;54240;51.096;5.878;2023-08-17T01:06:15;20.91;-6.00
67358;HTU21D;54240;51.096;5.878;2023-08-17T01:08:43;20.76;-6.00
67358;HTU21D;54240;51.096;5.878;2023-08-17T01:16:27;20.81;-6.00
67358;HTU21D;54240;51.096;5.878;2023-08-17T01:18:57;20.85;-6.00
67358;HTU21D;54240;51.096;5.878;2023-08-17T01:21:24;20.92;-6.00
67358;HTU21D;54240;51.096;5.878;2023-08-17T01:23:57;20.88;-6.00
67358;HTU21D;54240;51.096;5.878;2023-08-17T01:26:25;20.88;-6.00
67358;HTU21D;54240;51.096;5.878;2023-08-17T01:28:52;20.85;-6.00
67358;HTU21D;54240;51.096;5.878;2023-08-17T01:31:26;20.90;-6.00
67358;HTU21D;54240;51.096;5.878;2023-08-17T01:34:04;20.96;-6.00
67358;HTU21D;54240;51.096;5.878;2023-08-17T01:36:37;20.93;-6.00
67358;HTU21D;54240;51.096;5.878;2023-08-17T01:39:07;20.91;-6.00
67358;HTU21D;54240;51.096;5.878;2023-08-17T01:41:35;20.80;-6.00
67358;HTU21D;54240;51.096;5.878;2023-08-17T01:44:03;20.71;-6.00
67358;HTU21D;54240;51.096;5.878;2023-08-17T01:46:33;20.65;-6.00
67358;HTU21D;54240;51.096;5.878;2023-08-17T01:48:59;20.64;-6.00
67358;HTU21D;54240;51.096;5.878;2023-08-17T01:51:25;20.60;-6.00
67358;HTU21D;54240;51.096;5.878;2023-08-17T01:53:51;20.59;-6.00
67358;HTU21D;54240;51.096;5.878;2023-08-17T01:56:17;20.48;-6.00
67358;HTU21D;54240;51.096;5.878;2023-08-17T01:58:44;20.43;-6.00
67358;HTU21D;54240;51.096;5.878;2023-08-17T02:01:10;20.30;-6.00
67358;HTU21D;54240;51.096;5.878;2023-08-17T02:03:36;20.32;-6.00
67358;HTU21D;54240;51.096;5.878;2023-08-17T02:06:02;20.32;-6.00
67358;HTU21D;54240;51.096;5.878;2023-08-17T02:08:29;20.24;-6.00
67358;HTU21D;54240;51.096;5.878;2023-08-17T02:10:55;20.15;-6.00
67358;HTU21D;54240;51.096;5.878;2023-08-17T02:13:21;20.05;-6.00
67358;HTU21D;54240;51.096;5.878;2023-08-17T02:15:47;20.05;-6.00
67358;HTU21D;54240;51.096;5.878;2023-08-17T02:18:14;19.94;-6.00
67358;HTU21D;54240;51.096;5.878;2023-08-17T02:20:40;20.14;-6.00
67358;HTU21D;54240;51.096;5.878;2023-08-17T02:23:06;20.25;-6.00
67358;HTU21D;54240;51.096;5.878;2023-08-17T02:25:32;20.18;-6.00
67358;HTU21D;54240;51.096;5.878;2023-08-17T02:28:04;20.17;-6.00
67358;HTU21D;54240;51.096;5.878;2023-08-17T02:30:30;20.22;-6.00
67358;HTU21D;54240;51.096;5.878;2023-08-17T02:32:58;20.25;-6.00
67358;HTU21D;54240;51.096;5.878;2023-08-17T02:35:24;20.04;-6.00
67358;HTU21D;54240;51.096;5.878;2023-08-17T02:37:50;19.97;-6.00
67358;HTU21D;54240;51.096;5.878;2023-08-17T02:40:16;19.97;-6.00
67358;HTU21D;54240;51.096;5.878;2023-08-17T02:42:42;19.97;-6.00
67358;HTU21D;54240;51.096;5.878;2023-08-17T02:45:08;19.85;-6.00
67358;HTU21D;54240;51.096;5.878;2023-08-17T02:47:35;19.84;-6.00
67358;HTU21D;54240;51.096;5.878;2023-08-17T02:50:01;19.77;-6.00
67358;HTU21D;54240;51.096;5.878;2023-08-17T02:52:27;19.77;-6.00
67358;HTU21D;54240;51.096;5.878;2023-08-17T02:54:53;19.89;-6.00
67358;HTU21D;54240;51.096;5.878;2023-08-17T02:57:20;19.96;-6.00
67358;HTU21D;54240;51.096;5.878;2023-08-17T02:59:46;20.03;-6.00
67358;HTU21D;54240;51.096;5.878;2023-08-17T03:02:12;20.02;-6.00
67358;HTU21D;54240;51.096;5.878;2023-08-17T03:04:38;19.94;-6.00
67358;HTU21D;54240;51.096;5.878;2023-08-17T03:07:04;19.86;-6.00
67358;HTU21D;54240;51.096;5.878;2023-08-17T03:09:30;19.84;-6.00
67358;HTU21D;54240;51.096;5.878;2023-08-17T03:11:55;19.82;-6.00
67358;HTU21D;54240;51.096;5.878;2023-08-17T03:14:22;19.81;-6.00
67358;HTU21D;54240;51.096;5.878;2023-08-17T03:16:48;19.71;-6.00
67358;HTU21D;54240;51.096;5.878;2023-08-17T03:19:15;19.57;-6.00
67358;HTU21D;54240;51.096;5.878;2023-08-17T03:21:42;19.66;-6.00
67358;HTU21D;54240;51.096;5.878;2023-08-17T03:24:09;19.65;-6.00
67358;HTU21D;54240;51.096;5.878;2023-08-17T03:26:35;19.66;-6.00
67358;HTU21D;54240;51.096;5.878;2023-08-17T03:29:01;19.58;-6.00
67358;HTU21D;54240;51.096;5.878;2023-08-17T03:31:26;19.65;-6.00
67358;HTU21D;54240;51.096;5.878;2023-08-17T03:33:52;19.65;-6.00
67358;HTU21D;54240;51.096;5.878;2023-08-17T03:36:19;19.62;-6.00
67358;HTU21D;54240;51.096;5.878;2023-08-17T03:38:45;19.59;-6.00
67358;HTU21D;54240;51.096;5.878;2023-08-17T03:41:11;19.54;-6.00
67358;HTU21D;54240;51.096;5.878;2023-08-17T03:43:37;19.52;-6.00
67358;HTU21D;54240;51.096;5.878;2023-08-17T03:46:04;19.62;-6.00
67358;HTU21D;54240;51.096;5.878;2023-08-17T03:48:30;19.47;-6.00
67358;HTU21D;54240;51.096;5.878;2023-08-17T03:50:56;19.37;-6.00
67358;HTU21D;54240;51.096;5.878;2023-08-17T03:53:22;19.41;-6.00
67358;HTU21D;54240;51.096;5.878;2023-08-17T03:55:48;19.47;-6.00
67358;HTU21D;54240;51.096;5.878;2023-08-17T03:58:15;19.55;-6.00
67358;HTU21D;54240;51.096;5.878;2023-08-17T04:00:42;19.61;-6.00
67358;HTU21D;54240;51.096;5.878;2023-08-17T04:03:08;19.59;-6.00
67358;HTU21D;54240;51.096;5.878;2023-08-17T04:05:35;19.68;-6.00
67358;HTU21D;54240;51.096;5.878;2023-08-17T04:08:00;19.71;-6.00
67358;HTU21D;54240;51.096;5.878;2023-08-17T04:10:29;19.63;-6.00
67358;HTU21D;54240;51.096;5.878;2023-08-17T04:12:58;19.45;-6.00
67358;HTU21D;54240;51.096;5.878;2023-08-17T04:15:24;19.45;-6.00
67358;HTU21D;54240;51.096;5.878;2023-08-17T04:17:50;19.33;-6.00
67358;HTU21D;54240;51.096;5.878;2023-08-17T04:20:16;19.42;-6.00
67358;HTU21D;54240;51.096;5.878;2023-08-17T04:22:44;19.51;-6.00
67358;HTU21D;54240;51.096;5.878;2023-08-17T04:25:10;19.53;-6.00
67358;HTU21D;54240;51.096;5.878;2023-08-17T04:27:37;19.32;-6.00
67358;HTU21D;54240;51.096;5.878;2023-08-17T04:30:03;19.08;-6.00
67358;HTU21D;54240;51.096;5.878;2023-08-17T04:32:36;19.21;-6.00
67358;HTU21D;54240;51.096;5.878;2023-08-17T04:35:02;19.23;-6.00
67358;HTU21D;54240;51.096;5.878;2023-08-17T04:37:28;19.32;-6.00
67358;HTU21D;54240;51.096;5.878;2023-08-17T04:39:53;19.32;-6.00
67358;HTU21D;54240;51.096;5.878;2023-08-17T04:42:21;19.40;-6.00
67358;HTU21D;54240;51.096;5.878;2023-08-17T04:44:47;19.38;-6.00
67358;HTU21D;54240;51.096;5.878;2023-08-17T04:47:12;19.38;-6.00
67358;HTU21D;54240;51.096;5.878;2023-08-17T04:49:38;19.38;-6.00
67358;HTU21D;54240;51.096;5.878;2023-08-17T04:52:05;19.40;-6.00
67358;HTU21D;54240;51.096;5.878;2023-08-17T04:54:30;19.43;-6.00
67358;HTU21D;54240;51.096;5.878;2023-08-17T04:56:56;19.46;-6.00
67358;HTU21D;54240;51.096;5.878;2023-08-17T04:59:25;19.50;-6.00
67358;HTU21D;54240;51.096;5.878;2023-08-17T05:01:52;19.55;-6.00
67358;HTU21D;54240;51.096;5.878;2023-08-17T05:04:19;19.54;-6.00
67358;HTU21D;54240;51.096;5.878;2023-08-17T05:06:45;19.48;-6.00
67358;HTU21D;54240;51.096;5.878;2023-08-17T05:09:11;19.47;-6.00
67358;HTU21D;54240;51.096;5.878;2023-08-17T05:11:38;19.53;-6.00
67358;HTU21D;54240;51.096;5.878;2023-08-17T05:14:03;19.39;-6.00
67358;HTU21D;54240;51.096;5.878;2023-08-17T05:16:29;19.21;-6.00
67358;HTU21D;54240;51.096;5.878;2023-08-17T05:18:56;19.26;-6.00
67358;HTU21D;54240;51.096;5.878;2023-08-17T05:21:24;19.26;-6.00
67358;HTU21D;54240;51.096;5.878;2023-08-17T05:23:49;19.29;-6.00
67358;HTU21D;54240;51.096;5.878;2023-08-17T05:26:16;19.36;-6.00
67358;HTU21D;54240;51.096;5.878;2023-08-17T05:28:42;19.39;-6.00
67358;HTU21D;54240;51.096;5.878;2023-08-17T05:31:09;19.21;-6.00
67358;HTU21D;54240;51.096;5.878;2023-08-17T05:33:39;19.15;-6.00
67358;HTU21D;54240;51.096;5.878;2023-08-17T05:36:08;19.10;-6.00
67358;HTU21D;54240;51.096;5.878;2023-08-17T05:38:34;19.14;-6.00
67358;HTU21D;54240;51.096;5.878;2023-08-17T05:40:59;19.22;-6.00
67358;HTU21D;54240;51.096;5.878;2023-08-17T05:43:27;19.26;-6.00
67358;HTU21D;54240;51.096;5.878;2023-08-17T05:45:53;19.26;-6.00
67358;HTU21D;54240;51.096;5.878;2023-08-17T05:48:19;19.25;-6.00
67358;HTU21D;54240;51.096;5.878;2023-08-17T05:50:47;19.16;-6.00
67358;HTU21D;54240;51.096;5.878;2023-08-17T05:53:13;19.08;-6.00
67358;HTU21D;54240;51.096;5.878;2023-08-17T05:55:39;19.17;-6.00
67358;HTU21D;54240;51.096;5.878;2023-08-17T05:58:05;19.31;-6.00
67358;HTU21D;54240;51.096;5.878;2023-08-17T06:00:31;19.33;-6.00
67358;HTU21D;54240;51.096;5.878;2023-08-17T06:02:57;19.33;-6.00
67358;HTU21D;54240;51.096;5.878;2023-08-17T06:05:28;19.27;-6.00
67358;HTU21D;54240;51.096;5.878;2023-08-17T06:07:58;19.43;-6.00
67358;HTU21D;54240;51.096;5.878;2023-08-17T06:10:24;19.36;-6.00
67358;HTU21D;54240;51.096;5.878;2023-08-17T06:12:53;19.43;-6.00
67358;HTU21D;54240;51.096;5.878;2023-08-17T06:15:20;19.39;-6.00
67358;HTU21D;54240;51.096;5.878;2023-08-17T06:17:46;19.35;-6.00
67358;HTU21D;54240;51.096;5.878;2023-08-17T06:20:12;19.37;-6.00
67358;HTU21D;54240;51.096;5.878;2023-08-17T06:22:39;19.35;-6.00
67358;HTU21D;54240;51.096;5.878;2023-08-17T06:25:05;19.24;-6.00
67358;HTU21D;54240;51.096;5.878;2023-08-17T06:27:32;19.11;-6.00
67358;HTU21D;54240;51.096;5.878;2023-08-17T06:29:59;18.95;-6.00
67358;HTU21D;54240;51.096;5.878;2023-08-17T06:32:24;18.93;-6.00
67358;HTU21D;54240;51.096;5.878;2023-08-17T06:34:50;19.01;-6.00
67358;HTU21D;54240;51.096;5.878;2023-08-17T06:37:16;19.15;-6.00
67358;HTU21D;54240;51.096;5.878;2023-08-17T06:39:42;19.18;-6.00
67358;HTU21D;54240;51.096;5.878;2023-08-17T06:42:08;19.32;-6.00
67358;HTU21D;54240;51.096;5.878;2023-08-17T06:44:34;19.47;-6.00
67358;HTU21D;54240;51.096;5.878;2023-08-17T06:47:00;19.57;-6.00
67358;HTU21D;54240;51.096;5.878;2023-08-17T06:49:26;19.74;-6.00
67358;HTU21D;54240;51.096;5.878;2023-08-17T06:51:51;19.89;-6.00
67358;HTU21D;54240;51.096;5.878;2023-08-17T06:54:17;19.86;-6.00
67358;HTU21D;54240;51.096;5.878;2023-08-17T06:56:43;19.81;-6.00
67358;HTU21D;54240;51.096;5.878;2023-08-17T06:59:09;19.71;-6.00
67358;HTU21D;54240;51.096;5.878;2023-08-17T07:01:35;19.65;-6.00
67358;HTU21D;54240;51.096;5.878;2023-08-17T07:04:02;19.52;-6.00
67358;HTU21D;54240;51.096;5.878;2023-08-17T07:06:27;19.43;-6.00
67358;HTU21D;54240;51.096;5.878;2023-08-17T07:08:54;19.29;-6.00
67358;HTU21D;54240;51.096;5.878;2023-08-17T07:11:20;19.42;-6.00
67358;HTU21D;54240;51.096;5.878;2023-08-17T07:13:46;19.53;-6.00
67358;HTU21D;54240;51.096;5.878;2023-08-17T07:16:12;19.65;-6.00
67358;HTU21D;54240;51.096;5.878;2023-08-17T07:18:38;19.57;-6.00
67358;HTU21D;54240;51.096;5.878;2023-08-17T07:21:04;19.56;-6.00
67358;HTU21D;54240;51.096;5.878;2023-08-17T07:23:30;19.63;-6.00
67358;HTU21D;54240;51.096;5.878;2023-08-17T07:25:56;19.59;-6.00
67358;HTU21D;54240;51.096;5.878;2023-08-17T07:28:22;19.56;-6.00
67358;HTU21D;54240;51.096;5.878;2023-08-17T07:30:48;19.58;-6.00
67358;HTU21D;54240;51.096;5.878;2023-08-17T07:33:14;19.68;-6.00
67358;HTU21D;54240;51.096;5.878;2023-08-17T07:35:40;19.69;-6.00
67358;HTU21D;54240;51.096;5.878;2023-08-17T07:38:06;19.67;-6.00
67358;HTU21D;54240;51.096;5.878;2023-08-17T07:40:31;19.66;-6.00
67358;HTU21D;54240;51.096;5.878;2023-08-17T07:42:57;19.55;-6.00
67358;HTU21D;54240;51.096;5.878;2023-08-17T07:45:23;19.68;-6.00
67358;HTU21D;54240;51.096;5.878;2023-08-17T07:47:49;19.71;-6.00
67358;HTU21D;54240;51.096;5.878;2023-08-17T07:50:15;19.57;-6.00
67358;HTU21D;54240;51.096;5.878;2023-08-17T07:52:41;19.53;-6.00
67358;HTU21D;54240;51.096;5.878;2023-08-17T07:55:07;19.73;-6.00
67358;HTU21D;54240;51.096;5.878;2023-08-17T07:57:33;19.74;-6.00
67358;HTU21D;54240;51.096;5.878;2023-08-17T07:59:59;19.80;-6.00
67358;HTU21D;54240;51.096;5.878;2023-08-17T08:02:25;19.89;-6.00
67358;HTU21D;54240;51.096;5.878;2023-08-17T08:04:51;20.03;-6.00
67358;HTU21D;54240;51.096;5.878;2023-08-17T08:07:17;20.20;-6.00
67358;HTU21D;54240;51.096;5.878;2023-08-17T08:09:43;20.35;-6.00
67358;HTU21D;54240;51.096;5.878;2023-08-17T08:12:08;20.44;-6.00
67358;HTU21D;54240;51.096;5.878;2023-08-17T08:14:35;20.40;-6.00
67358;HTU21D;54240;51.096;5.878;2023-08-17T08:17:01;20.30;-6.00
67358;HTU21D;54240;51.096;5.878;2023-08-17T08:19:27;20.35;-6.00
67358;HTU21D;54240;51.096;5.878;2023-08-17T08:21:53;20.34;-6.00
67358;HTU21D;54240;51.096;5.878;2023-08-17T08:24:18;20.36;-6.00
67358;HTU21D;54240;51.096;5.878;2023-08-17T08:26:44;20.39;-6.00
67358;HTU21D;54240;51.096;5.878;2023-08-17T08:29:10;20.24;-6.00
67358;HTU21D;54240;51.096;5.878;2023-08-17T08:31:36;20.21;-6.00
67358;HTU21D;54240;51.096;5.878;2023-08-17T08:34:02;20.10;-6.00
67358;HTU21D;54240;51.096;5.878;2023-08-17T08:36:28;20.07;-6.00
67358;HTU21D;54240;51.096;5.878;2023-08-17T08:38:54;20.01;-6.00
67358;HTU21D;54240;51.096;5.878;2023-08-17T08:41:20;20.10;-6.00
67358;HTU21D;54240;51.096;5.878;2023-08-17T08:43:47;20.15;-6.00
67358;HTU21D;54240;51.096;5.878;2023-08-17T08:46:16;20.29;-6.00
67358;HTU21D;54240;51.096;5.878;2023-08-17T08:48:47;20.30;-6.00
67358;HTU21D;54240;51.096;5.878;2023-08-17T08:51:22;20.43;-6.00
67358;HTU21D;54240;51.096;5.878;2023-08-17T08:53:59;20.45;-6.00
67358;HTU21D;54240;51.096;5.878;2023-08-17T08:56:31;20.70;-6.00
67358;HTU21D;54240;51.096;5.878;2023-08-17T08:59:01;20.81;-6.00
67358;HTU21D;54240;51.096;5.878;2023-08-17T09:01:30;20.65;-6.00
67358;HTU21D;54240;51.096;5.878;2023-08-17T09:03:58;20.58;-6.00
67358;HTU21D;54240;51.096;5.878;2023-08-17T09:06:25;20.75;-6.00
67358;HTU21D;54240;51.096;5.878;2023-08-17T09:08:52;20.74;-6.00
67358;HTU21D;54240;51.096;5.878;2023-08-17T09:11:18;20.75;-6.00
67358;HTU21D;54240;51.096;5.878;2023-08-17T09:13:44;20.94;-6.00
67358;HTU21D;54240;51.096;5.878;2023-08-17T09:16:10;21.03;-6.00
67358;HTU21D;54240;51.096;5.878;2023-08-17T09:18:36;21.09;-6.00
67358;HTU21D;54240;51.096;5.878;2023-08-17T09:21:02;21.05;-6.00
67358;HTU21D;54240;51.096;5.878;2023-08-17T09:23:28;21.13;-6.00
67358;HTU21D;54240;51.096;5.878;2023-08-17T09:25:54;20.98;-6.00
67358;HTU21D;54240;51.096;5.878;2023-08-17T09:28:26;21.01;-6.00
67358;HTU21D;54240;51.096;5.878;2023-08-17T09:33:23;21.13;-6.00
67358;HTU21D;54240;51.096;5.878;2023-08-17T09:35:53;21.23;-6.00
67358;HTU21D;54240;51.096;5.878;2023-08-17T09:38:19;21.19;-6.00
67358;HTU21D;54240;51.096;5.878;2023-08-17T09:40:46;21.31;-6.00
67358;HTU21D;54240;51.096;5.878;2023-08-17T09:43:17;21.40;-6.00
67358;HTU21D;54240;51.096;5.878;2023-08-17T09:45:44;21.54;-6.00
67358;HTU21D;54240;51.096;5.878;2023-08-17T09:48:17;21.50;-6.00
67358;HTU21D;54240;51.096;5.878;2023-08-17T09:50:44;21.67;-6.00
67358;HTU21D;54240;51.096;5.878;2023-08-17T09:53:18;21.53;-6.00
67358;HTU21D;54240;51.096;5.878;2023-08-17T09:55:45;21.63;-6.00
67358;HTU21D;54240;51.096;5.878;2023-08-17T09:58:12;21.77;-6.00
67358;HTU21D;54240;51.096;5.878;2023-08-17T10:00:47;21.92;-6.00
67358;HTU21D;54240;51.096;5.878;2023-08-17T10:03:14;22.01;-6.00
67358;HTU21D;54240;51.096;5.878;2023-08-17T10:05:43;22.14;-6.00
67358;HTU21D;54240;51.096;5.878;2023-08-17T10:08:11;22.25;-6.00
67358;HTU21D;54240;51.096;5.878;2023-08-17T10:10:43;22.22;-6.00
67358;HTU21D;54240;51.096;5.878;2023-08-17T10:16:06;21.50;-6.00
67358;HTU21D;54240;51.096;5.878;2023-08-17T10:18:59;21.36;-6.00
67358;HTU21D;54240;51.096;5.878;2023-08-17T10:21:41;21.08;-6.00
67358;HTU21D;54240;51.096;5.878;2023-08-17T10:24:08;21.08;-6.00
67358;HTU21D;54240;51.096;5.878;2023-08-17T10:26:35;21.04;-6.00
67358;HTU21D;54240;51.096;5.878;2023-08-17T10:29:02;21.08;-6.00
67358;HTU21D;54240;51.096;5.878;2023-08-17T10:31:34;21.01;-6.00
67358;HTU21D;54240;51.096;5.878;2023-08-17T10:34:01;21.23;-6.00
67358;HTU21D;54240;51.096;5.878;2023-08-17T10:36:30;21.33;-6.00
67358;HTU21D;54240;51.096;5.878;2023-08-17T10:39:26;21.40;-6.00
67358;HTU21D;54240;51.096;5.878;2023-08-17T10:41:53;21.64;-6.00
67358;HTU21D;54240;51.096;5.878;2023-08-17T10:47:26;21.39;-6.00
67358;HTU21D;54240;51.096;5.878;2023-08-17T10:50:03;21.16;-6.00
67358;HTU21D;54240;51.096;5.878;2023-08-17T10:52:32;21.33;-6.00
67358;HTU21D;54240;51.096;5.878;2023-08-17T10:55:05;21.21;-6.00
67358;HTU21D;54240;51.096;5.878;2023-08-17T10:57:33;21.17;-6.00
67358;HTU21D;54240;51.096;5.878;2023-08-17T11:00:19;21.31;-6.00
67358;HTU21D;54240;51.096;5.878;2023-08-17T11:03:07;21.45;-6.00
67358;HTU21D;54240;51.096;5.878;2023-08-17T11:05:53;21.63;-6.00
67358;HTU21D;54240;51.096;5.878;2023-08-17T11:08:51;21.80;-6.00
67358;HTU21D;54240;51.096;5.878;2023-08-17T11:11:19;21.98;-6.00
67358;HTU21D;54240;51.096;5.878;2023-08-17T11:13:46;22.01;-6.00
67358;HTU21D;54240;51.096;5.878;2023-08-17T11:16:14;21.70;-6.00
67358;HTU21D;54240;51.096;5.878;2023-08-17T11:18:40;21.65;-6.00
67358;HTU21D;54240;51.096;5.878;2023-08-17T11:21:13;21.55;-6.00
67358;HTU21D;54240;51.096;5.878;2023-08-17T11:23:41;21.67;-6.00
67358;HTU21D;54240;51.096;5.878;2023-08-17T11:26:07;21.79;-6.00
67358;HTU21D;54240;51.096;5.878;2023-08-17T11:28:34;22.05;-6.00
67358;HTU21D;54240;51.096;5.878;2023-08-17T11:31:11;22.32;-6.00
67358;HTU21D;54240;51.096;5.878;2023-08-17T11:33:38;22.54;-6.00
67358;HTU21D;54240;51.096;5.878;2023-08-17T11:36:08;22.82;-6.00
67358;HTU21D;54240;51.096;5.878;2023-08-17T11:38:36;22.64;-6.00
67358;HTU21D;54240;51.096;5.878;2023-08-17T11:41:02;22.28;-6.00
67358;HTU21D;54240;51.096;5.878;2023-08-17T11:43:29;22.16;-6.00
67358;HTU21D;54240;51.096;5.878;2023-08-17T11:45:56;22.14;-6.00
67358;HTU21D;54240;51.096;5.878;2023-08-17T11:48:23;22.13;-6.00
67358;HTU21D;54240;51.096;5.878;2023-08-17T11:50:50;22.23;-6.00
67358;HTU21D;54240;51.096;5.878;2023-08-17T11:53:16;22.38;-6.00
67358;HTU21D;54240;51.096;5.878;2023-08-17T11:55:45;22.24;-6.00
67358;HTU21D;54240;51.096;5.878;2023-08-17T11:58:11;22.04;-6.00
67358;HTU21D;54240;51.096;5.878;2023-08-17T12:00:42;21.96;-6.00
67358;HTU21D;54240;51.096;5.878;2023-08-17T12:03:14;22.09;-6.00
67358;HTU21D;54240;51.096;5.878;2023-08-17T12:05:40;22.19;-6.00
67358;HTU21D;54240;51.096;5.878;2023-08-17T12:08:07;22.21;-6.00
67358;HTU21D;54240;51.096;5.878;2023-08-17T12:10:34;22.17;-6.00
67358;HTU21D;54240;51.096;5.878;2023-08-17T12:13:01;22.26;-6.00
67358;HTU21D;54240;51.096;5.878;2023-08-17T12:15:32;22.47;-6.00
67358;HTU21D;54240;51.096;5.878;2023-08-17T12:18:03;22.57;-6.00
67358;HTU21D;54240;51.096;5.878;2023-08-17T12:20:32;22.34;-6.00
67358;HTU21D;54240;51.096;5.878;2023-08-17T12:22:59;22.47;-6.00
67358;HTU21D;54240;51.096;5.878;2023-08-17T12:25:25;22.55;-6.00
67358;HTU21D;54240;51.096;5.878;2023-08-17T12:27:52;22.41;-6.00
67358;HTU21D;54240;51.096;5.878;2023-08-17T12:32:51;22.40;-6.00
67358;HTU21D;54240;51.096;5.878;2023-08-17T12:35:17;22.60;-6.00
67358;HTU21D;54240;51.096;5.878;2023-08-17T12:37:44;22.55;-6.00
67358;HTU21D;54240;51.096;5.878;2023-08-17T12:40:13;22.63;-6.00
67358;HTU21D;54240;51.096;5.878;2023-08-17T12:42:39;22.77;-6.00
67358;HTU21D;54240;51.096;5.878;2023-08-17T12:45:05;22.82;-6.00
67358;HTU21D;54240;51.096;5.878;2023-08-17T12:47:31;22.85;-6.00
67358;HTU21D;54240;51.096;5.878;2023-08-17T12:49:57;22.80;-6.00
67358;HTU21D;54240;51.096;5.878;2023-08-17T12:52:23;22.80;-6.00
67358;HTU21D;54240;51.096;5.878;2023-08-17T12:54:49;22.67;-6.00
67358;HTU21D;54240;51.096;5.878;2023-08-17T12:57:14;22.73;-6.00
67358;HTU21D;54240;51.096;5.878;2023-08-17T12:59:40;22.86;-6.00
67358;HTU21D;54240;51.096;5.878;2023-08-17T13:02:06;22.97;-6.00
67358;HTU21D;54240;51.096;5.878;2023-08-17T13:04:32;22.98;-6.00
67358;HTU21D;54240;51.096;5.878;2023-08-17T13:06:58;22.93;-6.00
67358;HTU21D;54240;51.096;5.878;2023-08-17T13:09:24;22.79;-6.00
67358;HTU21D;54240;51.096;5.878;2023-08-17T13:11:50;22.88;-6.00
67358;HTU21D;54240;51.096;5.878;2023-08-17T13:14:16;23.12;-6.00
67358;HTU21D;54240;51.096;5.878;2023-08-17T13:16:42;23.27;-6.00
67358;HTU21D;54240;51.096;5.878;2023-08-17T13:19:08;23.30;-6.00
67358;HTU21D;54240;51.096;5.878;2023-08-17T13:21:33;23.31;-6.00
67358;HTU21D;54240;51.096;5.878;2023-08-17T13:23:59;23.57;-6.00
67358;HTU21D;54240;51.096;5.878;2023-08-17T13:26:25;23.81;-6.00
67358;HTU21D;54240;51.096;5.878;2023-08-17T13:28:51;24.06;-6.00
67358;HTU21D;54240;51.096;5.878;2023-08-17T13:31:17;24.18;-6.00
67358;HTU21D;54240;51.096;5.878;2023-08-17T13:33:45;24.28;-6.00
67358;HTU21D;54240;51.096;5.878;2023-08-17T13:36:11;24.39;-6.00
67358;HTU21D;54240;51.096;5.878;2023-08-17T13:38:37;24.32;-6.00
67358;HTU21D;54240;51.096;5.878;2023-08-17T13:41:04;24.20;-6.00
67358;HTU21D;54240;51.096;5.878;2023-08-17T13:43:30;24.19;-6.00
67358;HTU21D;54240;51.096;5.878;2023-08-17T13:45:56;24.19;-6.00
67358;HTU21D;54240;51.096;5.878;2023-08-17T13:48:22;24.28;-6.00
67358;HTU21D;54240;51.096;5.878;2023-08-17T13:50:48;24.17;-6.00
67358;HTU21D;54240;51.096;5.878;2023-08-17T13:53:14;23.83;-6.00
67358;HTU21D;54240;51.096;5.878;2023-08-17T13:55:40;23.70;-6.00
67358;HTU21D;54240;51.096;5.878;2023-08-17T13:58:05;23.73;-6.00
67358;HTU21D;54240;51.096;5.878;2023-08-17T14:00:31;23.77;-6.00
67358;HTU21D;54240;51.096;5.878;2023-08-17T14:02:57;23.96;-6.00
67358;HTU21D;54240;51.096;5.878;2023-08-17T14:05:23;24.24;-6.00
67358;HTU21D;54240;51.096;5.878;2023-08-17T14:07:49;24.63;-6.00
67358;HTU21D;54240;51.096;5.878;2023-08-17T14:10:17;24.80;-6.00
67358;HTU21D;54240;51.096;5.878;2023-08-17T14:12:43;24.94;-6.00
67358;HTU21D;54240;51.096;5.878;2023-08-17T14:15:09;25.09;-6.00
67358;HTU21D;54240;51.096;5.878;2023-08-17T14:17:35;24.54;-6.00
67358;HTU21D;54240;51.096;5.878;2023-08-17T14:20:01;23.87;-6.00
67358;HTU21D;54240;51.096;5.878;2023-08-17T14:22:29;23.58;-6.00
67358;HTU21D;54240;51.096;5.878;2023-08-17T14:24:55;23.35;-6.00
67358;HTU21D;54240;51.096;5.878;2023-08-17T14:27:23;23.52;-6.00
67358;HTU21D;54240;51.096;5.878;2023-08-17T14:29:49;23.57;-6.00
67358;HTU21D;54240;51.096;5.878;2023-08-17T14:32:15;23.76;-6.00
67358;HTU21D;54240;51.096;5.878;2023-08-17T14:34:41;23.64;-6.00
67358;HTU21D;54240;51.096;5.878;2023-08-17T14:37:07;23.52;-6.00
67358;HTU21D;54240;51.096;5.878;2023-08-17T14:39:35;23.77;-6.00
67358;HTU21D;54240;51.096;5.878;2023-08-17T14:42:01;23.79;-6.00
67358;HTU21D;54240;51.096;5.878;2023-08-17T14:44:27;23.82;-6.00
67358;HTU21D;54240;51.096;5.878;2023-08-17T14:46:53;23.73;-6.00
67358;HTU21D;54240;51.096;5.878;2023-08-17T14:49:18;23.90;-6.00
67358;HTU21D;54240;51.096;5.878;2023-08-17T14:51:44;23.77;-6.00
67358;HTU21D;54240;51.096;5.878;2023-08-17T14:54:10;23.84;-6.00
67358;HTU21D;54240;51.096;5.878;2023-08-17T14:56:37;23.81;-6.00
67358;HTU21D;54240;51.096;5.878;2023-08-17T14:59:03;23.70;-6.00
67358;HTU21D;54240;51.096;5.878;2023-08-17T15:01:29;23.59;-6.00
67358;HTU21D;54240;51.096;5.878;2023-08-17T15:03:56;23.69;-6.00
67358;HTU21D;54240;51.096;5.878;2023-08-17T15:06:22;23.58;-6.00
67358;HTU21D;54240;51.096;5.878;2023-08-17T15:08:50;23.68;-6.00
67358;HTU21D;54240;51.096;5.878;2023-08-17T15:11:16;23.80;-6.00
67358;HTU21D;54240;51.096;5.878;2023-08-17T15:13:42;23.77;-6.00
67358;HTU21D;54240;51.096;5.878;2023-08-17T15:16:09;23.62;-6.00
67358;HTU21D;54240;51.096;5.878;2023-08-17T15:18:38;23.60;-6.00
67358;HTU21D;54240;51.096;5.878;2023-08-17T15:21:04;23.72;-6.00
67358;HTU21D;54240;51.096;5.878;2023-08-17T15:23:32;23.80;-6.00
67358;HTU21D;54240;51.096;5.878;2023-08-17T15:25:58;23.65;-6.00
67358;HTU21D;54240;51.096;5.878;2023-08-17T15:28:24;23.45;-6.00
67358;HTU21D;54240;51.096;5.878;2023-08-17T15:31:01;23.23;-6.00